Ryoei Maru — JL6703 — position and weather

sailwx.info

Track history (hours):
 
Tides and Currents Weather Stations Pressure Air Temp Water Temp Dewpoint Dewpoint Depression Visibility Wind Speed Wind Dir Waves Ship Positions

Ryoei Maru

Last reported at 2016-Feb-11 15:25 UTC. Time now 2016-Feb-14 23:07 UTC.
Position N 35°29' E 140°46'.

Length 95 m; draft 5 m.

Type: Cargo ship. MMSI: 431501749.

Date/timePositionNaut miles runAvg speedWind from/ knotsBaromVisibWave heightAir tempDewpointWater temp
2016-Feb-11 15:25N 35°29' E 140°46'1713.8
2016-Feb-11 14:10N 35°14' E 140°34'2415.0
2016-Feb-11 12:33N 34°59' E 140°12'1414.4
2016-Feb-11 11:33N 34°51' E 139°57'1514.3
2016-Feb-11 10:31N 34°44' E 139°41'23611.8
2016-Feb-10 14:33N 33°59' E 134°59'1414.2
2016-Feb-10 13:33N 34°14' E 134°58'1312.5
2016-Feb-10 12:33N 34°26' E 135°03'1413.9
2016-Feb-10 11:33N 34°34' E 135°16'8 7.6
2016-Feb-10 10:27N 34°37' E 135°26'0 0.0
2016-Feb-10 08:15N 34°37' E 135°26'0 0.0
2016-Feb-10 07:33N 34°37' E 135°26'0 0.0
2016-Feb-10 04:21N 34°37' E 135°26'0 0.0
2016-Feb-10 03:33N 34°37' E 135°26'0 0.0
2016-Feb-10 02:27N 34°37' E 135°26'0 0.0
2016-Feb-10 00:27N 34°37' E 135°26'0 0.0
2016-Feb-09 23:33N 34°37' E 135°26'7 6.7
2016-Feb-09 22:34N 34°34' E 135°18'1312.8
2016-Feb-09 21:33N 34°25' E 135°08'1212.5
2016-Feb-09 20:33N 34°14' E 134°59'1212.0
2016-Feb-09 19:33N 34°02' E 134°60'180 9.3
2016-Feb-09 00:11N 34°32' E 138°34'5411.2
2016-Feb-08 19:19N 34°42' E 139°39'2910.5
2016-Feb-08 16:33N 34°57' E 140°10'2311.0
2016-Feb-08 14:30N 35°12' E 140°31'  
2016-Feb-05 16:04N 35°39' E 140°56'913.4
2016-Feb-05 15:24N 35°32' E 140°50'1313.8
2016-Feb-05 14:30N 35°21' E 140°41'1713.6
2016-Feb-05 13:13N 35°08' E 140°28'1013.8
2016-Feb-05 12:29N 35°01' E 140°19'1815.5
2016-Feb-05 11:20N 34°52' E 139°60'1415.3
2016-Feb-05 10:27N 34°45' E 139°45'24012.1
2016-Feb-04 14:34N 34°02' E 134°59'1514.8
2016-Feb-04 13:31N 34°17' E 134°58'1313.7
2016-Feb-04 12:33N 34°28' E 135°08'1413.5
2016-Feb-04 11:33N 34°37' E 135°20'4 4.0
2016-Feb-04 10:29N 34°37' E 135°26'0 0.0
2016-Feb-04 09:23N 34°37' E 135°26'0 0.0
2016-Feb-04 08:29N 34°37' E 135°26'0 0.0
2016-Feb-04 07:29N 34°37' E 135°26'0 0.0
2016-Feb-04 06:29N 34°37' E 135°26'0 0.0
2016-Feb-04 05:29N 34°37' E 135°26'0 0.0
2016-Feb-04 04:23N 34°37' E 135°26'0 0.0
2016-Feb-04 03:08N 34°37' E 135°26'0 0.0
2016-Feb-04 02:32N 34°37' E 135°26'0 0.0
2016-Feb-04 00:14N 34°37' E 135°26'0 0.0
2016-Feb-03 23:26N 34°37' E 135°26'0 0.0
2016-Feb-03 22:32N 34°37' E 135°26'6 5.7
2016-Feb-03 21:33N 34°35' E 135°19'1 1.0
2016-Feb-03 20:24N 34°35' E 135°18'0 0.0
2016-Feb-03 19:30N 34°35' E 135°18'9 9.8
2016-Feb-03 18:33N 34°28' E 135°10'1313.4
2016-Feb-03 17:33N 34°18' E 134°60'1312.9
2016-Feb-03 16:33N 34°05' E 134°60'23910.7
2016-Feb-02 18:10N 34°45' E 139°45'1113.3
2016-Feb-02 17:21N 34°51' E 139°56'1113.3
2016-Feb-02 16:33N 34°56' E 140°08'2512.7
2016-Feb-02 14:33N 35°12' E 140°32'  
Track history (hours):
 
Tides and Currents Weather Stations Pressure Air Temp Water Temp Dewpoint Dewpoint Depression Visibility Wind Speed Wind Dir Waves Ship Positions

Ryoei Maru

Last reported at 2016-Feb-11 15:25 UTC. Time now 2016-Feb-14 23:07 UTC.
Position N 35°29' E 140°46'.

Length 95 m; draft 5 m.

Type: Cargo ship. MMSI: 431501749.

Date/timePositionNaut miles runAvg speedWind from/ knotsBaromVisibWave heightAir tempDewpointWater temp
2016-Feb-11 15:25N 35°29' E 140°46'1713.8
2016-Feb-11 14:10N 35°14' E 140°34'2415.0
2016-Feb-11 12:33N 34°59' E 140°12'1414.4
2016-Feb-11 11:33N 34°51' E 139°57'1514.3
2016-Feb-11 10:31N 34°44' E 139°41'23611.8
2016-Feb-10 14:33N 33°59' E 134°59'1414.2
2016-Feb-10 13:33N 34°14' E 134°58'1312.5
2016-Feb-10 12:33N 34°26' E 135°03'1413.9
2016-Feb-10 11:33N 34°34' E 135°16'8 7.6
2016-Feb-10 10:27N 34°37' E 135°26'0 0.0
2016-Feb-10 08:15N 34°37' E 135°26'0 0.0
2016-Feb-10 07:33N 34°37' E 135°26'0 0.0
2016-Feb-10 04:21N 34°37' E 135°26'0 0.0
2016-Feb-10 03:33N 34°37' E 135°26'0 0.0
2016-Feb-10 02:27N 34°37' E 135°26'0 0.0
2016-Feb-10 00:27N 34°37' E 135°26'0 0.0
2016-Feb-09 23:33N 34°37' E 135°26'7 6.7
2016-Feb-09 22:34N 34°34' E 135°18'1312.8
2016-Feb-09 21:33N 34°25' E 135°08'1212.5
2016-Feb-09 20:33N 34°14' E 134°59'1212.0
2016-Feb-09 19:33N 34°02' E 134°60'180 9.3
2016-Feb-09 00:11N 34°32' E 138°34'5411.2
2016-Feb-08 19:19N 34°42' E 139°39'2910.5
2016-Feb-08 16:33N 34°57' E 140°10'2311.0
2016-Feb-08 14:30N 35°12' E 140°31'  
2016-Feb-05 16:04N 35°39' E 140°56'913.4
2016-Feb-05 15:24N 35°32' E 140°50'1313.8
2016-Feb-05 14:30N 35°21' E 140°41'1713.6
2016-Feb-05 13:13N 35°08' E 140°28'1013.8
2016-Feb-05 12:29N 35°01' E 140°19'1815.5
2016-Feb-05 11:20N 34°52' E 139°60'1415.3
2016-Feb-05 10:27N 34°45' E 139°45'24012.1
2016-Feb-04 14:34N 34°02' E 134°59'1514.8
2016-Feb-04 13:31N 34°17' E 134°58'1313.7
2016-Feb-04 12:33N 34°28' E 135°08'1413.5
2016-Feb-04 11:33N 34°37' E 135°20'4 4.0
2016-Feb-04 10:29N 34°37' E 135°26'0 0.0
2016-Feb-04 09:23N 34°37' E 135°26'0 0.0
2016-Feb-04 08:29N 34°37' E 135°26'0 0.0
2016-Feb-04 07:29N 34°37' E 135°26'0 0.0
2016-Feb-04 06:29N 34°37' E 135°26'0 0.0
2016-Feb-04 05:29N 34°37' E 135°26'0 0.0
2016-Feb-04 04:23N 34°37' E 135°26'0 0.0
2016-Feb-04 03:08N 34°37' E 135°26'0 0.0
2016-Feb-04 02:32N 34°37' E 135°26'0 0.0
2016-Feb-04 00:14N 34°37' E 135°26'0 0.0
2016-Feb-03 23:26N 34°37' E 135°26'0 0.0
2016-Feb-03 22:32N 34°37' E 135°26'6 5.7
2016-Feb-03 21:33N 34°35' E 135°19'1 1.0
2016-Feb-03 20:24N 34°35' E 135°18'0 0.0
2016-Feb-03 19:30N 34°35' E 135°18'9 9.8
2016-Feb-03 18:33N 34°28' E 135°10'1313.4
2016-Feb-03 17:33N 34°18' E 134°60'1312.9
2016-Feb-03 16:33N 34°05' E 134°60'23910.7
2016-Feb-02 18:10N 34°45' E 139°45'1113.3
2016-Feb-02 17:21N 34°51' E 139°56'1113.3
2016-Feb-02 16:33N 34°56' E 140°08'2512.7
2016-Feb-02 14:33N 35°12' E 140°32'  

Dump ship's entire track history